Time;durP1;ratioP1;P1;durP2;ratioP2;P2;SDS_P1;SDS_P2;PMS_P1;PMS_P2;Temp;Humidity;BMP_temperature;BMP_pressure;BME280_temperature;BME280_humidity;BME280_pressure;Samples;Min_cycle;Max_cycle;Signal;HPM_P1;HPM_P2
2023/05/31 00:01:20;;;;;;;;;;;10.50;99.90;;;-148.53;100.00;63986.66;5054994;28;20011;-81
2023/05/31 00:03:47;;;;;;;;;;;10.50;99.90;;;-148.53;100.00;63986.66;5061099;28;19916;-82
2023/05/31 00:06:13;;;;;;;;;;;10.40;99.90;;;-148.53;100.00;63986.66;5054365;28;19916;-82
2023/05/31 00:08:40;;;;;;;;;;;10.50;99.90;;;-148.53;100.00;63986.66;5054733;28;19916;-82
2023/05/31 00:11:08;;;;;;;;;;;10.50;99.90;;;-148.53;100.00;63986.66;5055371;28;19974;-82
2023/05/31 00:13:34;;;;;;;;;;;10.50;99.90;;;-148.53;100.00;63986.66;5086836;28;19965;-82
2023/05/31 00:16:01;;;;;;;;;;;10.50;99.90;;;-148.53;100.00;63986.66;5054360;28;19920;-81
2023/05/31 00:18:27;;;;;;;;;;;10.40;99.90;;;-148.53;100.00;63986.66;5055087;28;20369;-82
2023/05/31 00:20:52;;;;;;;;;;;10.30;99.90;;;-148.53;100.00;63986.66;5059372;28;19916;-82
2023/05/31 00:23:39;;;;;;;;;;;10.20;99.90;;;-148.53;100.00;63986.66;5058117;28;20518;-82
2023/05/31 00:26:08;;;;;;;;;;;10.20;99.90;;;-148.53;100.00;63986.66;5063325;28;19921;-83
2023/05/31 00:28:36;;;;;;;;;;;10.10;99.90;;;-148.53;100.00;63986.66;5053807;28;19917;-84
2023/05/31 00:31:02;;;;;;;;;;;10.20;99.90;;;-148.53;100.00;63986.66;5087776;28;19959;-84
2023/05/31 00:33:27;;;;;;;;;;;10.40;99.90;;;-148.53;100.00;63986.66;5088213;28;19921;-82
2023/05/31 00:35:53;;;;;;;;;;;10.40;99.90;;;-148.53;100.00;63986.66;5056393;28;19950;-81
2023/05/31 00:38:19;;;;;;;;;;;10.40;99.90;;;-148.53;100.00;63986.66;5057220;28;19959;-82
2023/05/31 00:40:47;;;;;;;;;;;10.40;99.90;;;-148.53;100.00;63986.66;5064143;28;19916;-81
2023/05/31 00:43:12;;;;;;;;;;;10.40;99.90;;;-148.53;100.00;63986.66;5039114;28;19931;-81
2023/05/31 00:45:40;;;;;;;;;;;10.20;99.90;;;-148.53;100.00;63986.66;5056575;28;20449;-81
2023/05/31 00:48:08;;;;;;;;;;;10.00;99.90;;;-148.53;100.00;63986.66;5059460;28;19917;-82
2023/05/31 00:50:34;;;;;;;;;;;9.80;99.90;;;-148.53;100.00;63986.66;5071115;28;19920;-81
2023/05/31 00:53:01;;;;;;;;;;;9.60;99.90;;;-148.53;100.00;63986.66;5086629;28;19904;-81
2023/05/31 00:55:28;;;;;;;;;;;9.30;99.90;;;-148.53;100.00;63986.66;5085094;28;19948;-81
2023/05/31 00:57:54;;;;;;;;;;;9.10;99.90;;;-148.53;100.00;63986.66;5079520;28;19905;-80
2023/05/31 01:00:20;;;;;;;;;;;8.90;99.90;;;-148.53;100.00;63986.66;5088113;28;20054;-80
2023/05/31 01:02:50;;;;;;;;;;;8.70;99.90;;;-148.53;100.00;63986.66;5083630;28;19904;-81
2023/05/31 01:05:19;;;;;;;;;;;8.60;99.90;;;-148.53;100.00;63986.66;5066990;28;19989;-83
2023/05/31 01:07:45;;;;;;;;;;;8.60;99.90;;;-148.53;100.00;63986.66;5062893;28;20079;-83
2023/05/31 01:10:13;;;;;;;;;;;8.60;99.90;;;-148.53;100.00;63986.66;5054357;28;19990;-81
2023/05/31 01:12:58;;;;;;;;;;;8.50;99.90;;;-148.53;100.00;63986.66;5061914;28;19917;-82
2023/05/31 01:15:38;;;;;;;;;;;8.50;99.90;;;-148.53;100.00;63986.66;5053310;28;20347;-82
2023/05/31 01:18:31;;;;;;;;;;;8.50;99.90;;;-148.53;100.00;63986.66;5067656;28;19916;-83
2023/05/31 01:21:01;;;;;;;;;;;8.40;99.90;;;-148.53;100.00;63986.66;5059149;28;19931;-82
2023/05/31 01:23:48;;;;;;;;;;;8.40;99.90;;;-148.53;100.00;63986.66;5084791;28;19956;-82
2023/05/31 01:26:35;;;;;;;;;;;8.40;99.90;;;-148.53;100.00;63986.66;5084985;28;19963;-82
2023/05/31 01:29:04;;;;;;;;;;;8.40;99.90;;;-148.53;100.00;63986.66;5038123;28;19978;-82
2023/05/31 01:31:33;;;;;;;;;;;8.30;99.90;;;-148.53;100.00;63986.66;5074006;28;19917;-82
2023/05/31 01:33:59;;;;;;;;;;;8.30;99.90;;;-148.53;100.00;63986.66;5052691;28;19917;-82
2023/05/31 01:36:25;;;;;;;;;;;8.30;99.90;;;-148.53;100.00;63986.66;5058443;28;19920;-82
2023/05/31 01:38:51;;;;;;;;;;;8.40;99.90;;;-148.53;100.00;63986.66;5066796;28;19939;-83
2023/05/31 01:41:18;;;;;;;;;;;8.40;99.90;;;-148.53;100.00;63986.66;5053331;28;19917;-83
2023/05/31 01:43:46;;;;;;;;;;;8.40;99.90;;;-148.53;100.00;63986.66;5065025;28;20004;-82
2023/05/31 01:46:16;;;;;;;;;;;8.50;99.90;;;-148.53;100.00;63986.66;5061982;28;20372;-82
2023/05/31 01:48:42;;;;;;;;;;;8.60;99.90;;;-148.53;100.00;63986.66;5052167;28;19916;-82
2023/05/31 01:51:10;;;;;;;;;;;8.50;99.90;;;-148.53;100.00;63986.66;5054112;28;20034;-83
2023/05/31 01:53:36;;;;;;;;;;;8.40;99.90;;;-148.53;100.00;63986.66;5060900;28;19917;-83
2023/05/31 01:56:04;;;;;;;;;;;8.20;99.90;;;-148.53;100.00;63986.66;5071674;28;19923;-83
2023/05/31 01:58:31;;;;;;;;;;;8.10;99.90;;;-148.53;100.00;63986.66;5067701;28;20430;-82
2023/05/31 02:00:58;;;;;;;;;;;8.10;99.90;;;-148.53;100.00;63986.66;5071527;28;19924;-82
2023/05/31 02:03:24;;;;;;;;;;;8.10;99.90;;;-148.53;100.00;63986.66;5066418;28;20320;-83
2023/05/31 02:05:59;;;;;;;;;;;8.10;99.90;;;-148.53;100.00;63986.66;5055249;28;19924;-83
2023/05/31 02:08:25;;;;;;;;;;;8.10;99.90;;;-148.53;100.00;63986.66;5088092;28;20006;-83
2023/05/31 02:10:51;;;;;;;;;;;8.00;99.90;;;-148.53;100.00;63986.66;5055517;28;19916;-82
2023/05/31 02:13:18;;;;;;;;;;;8.00;99.90;;;-148.53;100.00;63986.66;5088342;28;20356;-83
2023/05/31 02:15:44;;;;;;;;;;;7.80;99.90;;;-148.53;100.00;63986.66;5054826;28;20364;-82
2023/05/31 02:18:10;;;;;;;;;;;7.70;99.90;;;-148.53;100.00;63986.66;5038232;28;19923;-82
2023/05/31 02:20:36;;;;;;;;;;;7.70;99.90;;;-148.53;100.00;63986.66;5058784;28;20333;-82
2023/05/31 02:23:01;;;;;;;;;;;7.70;99.90;;;-148.53;100.00;63986.66;5062982;28;19917;-82
2023/05/31 02:25:30;;;;;;;;;;;7.70;99.90;;;-148.53;100.00;63986.66;5059647;28;20438;-82
2023/05/31 02:27:58;;;;;;;;;;;7.60;99.90;;;-148.53;100.00;63986.66;5065356;28;19928;-83
2023/05/31 02:30:26;;;;;;;;;;;7.60;99.90;;;-148.53;100.00;63986.66;5062538;28;19956;-82
2023/05/31 02:32:53;;;;;;;;;;;7.50;99.90;;;-148.53;100.00;63986.66;5066463;28;19999;-82
2023/05/31 02:35:18;;;;;;;;;;;7.40;99.90;;;-148.53;100.00;63986.66;5058137;28;19917;-82
2023/05/31 02:37:45;;;;;;;;;;;7.50;99.90;;;-148.53;100.00;63986.66;5058965;28;19945;-83
2023/05/31 02:40:13;;;;;;;;;;;7.40;99.90;;;-148.53;100.00;63986.66;5087759;28;20284;-83
2023/05/31 02:42:40;;;;;;;;;;;7.40;99.90;;;-148.53;100.00;63986.66;5057346;28;20435;-83
2023/05/31 02:45:08;;;;;;;;;;;7.60;99.90;;;-148.53;100.00;63986.66;5056052;28;19916;-83
2023/05/31 02:47:36;;;;;;;;;;;7.60;99.90;;;-148.53;100.00;63986.66;5054603;28;19912;-83
2023/05/31 02:50:04;;;;;;;;;;;7.70;99.90;;;-148.53;100.00;63986.66;5058502;28;19917;-83
2023/05/31 02:52:30;;;;;;;;;;;7.70;99.90;;;-148.53;100.00;63986.66;5063824;28;20383;-83
2023/05/31 02:55:20;;;;;;;;;;;7.80;99.90;;;-148.53;100.00;63986.66;5042441;28;19939;-83
2023/05/31 02:58:12;;;;;;;;;;;7.80;99.90;;;-148.53;100.00;63986.66;5054957;28;20312;-82
2023/05/31 03:00:44;;;;;;;;;;;8.00;99.90;;;-148.53;100.00;63986.66;5066894;28;19938;-83
2023/05/31 03:03:12;;;;;;;;;;;7.80;99.90;;;-148.53;100.00;63986.66;5066731;28;20308;-83
2023/05/31 03:05:51;;;;;;;;;;;7.80;99.90;;;-148.53;100.00;63986.66;5060500;28;19917;-85
2023/05/31 03:08:17;;;;;;;;;;;8.00;99.90;;;-148.53;100.00;63986.66;5054876;28;19913;-84
2023/05/31 03:10:42;;;;;;;;;;;8.10;99.90;;;-148.53;100.00;63986.66;5053743;28;20381;-83
2023/05/31 03:13:08;;;;;;;;;;;8.10;99.90;;;-148.53;100.00;63986.66;5054731;28;19912;-83
2023/05/31 03:15:35;;;;;;;;;;;8.20;99.90;;;-148.53;100.00;63986.66;5060548;28;19924;-83
2023/05/31 03:18:01;;;;;;;;;;;8.20;99.90;;;-148.53;100.00;63986.66;5053247;28;19931;-83
2023/05/31 03:20:27;;;;;;;;;;;8.20;99.90;;;-148.53;100.00;63986.66;5057980;28;20361;-83
2023/05/31 03:22:54;;;;;;;;;;;8.20;99.90;;;-148.53;100.00;63986.66;5066002;28;20272;-83
2023/05/31 03:25:20;;;;;;;;;;;8.30;99.90;;;-148.53;100.00;63986.66;5059420;28;19917;-83
2023/05/31 03:27:46;;;;;;;;;;;8.20;99.90;;;-148.53;100.00;63986.66;5065254;28;20361;-82
2023/05/31 03:30:12;;;;;;;;;;;8.20;99.90;;;-148.53;100.00;63986.66;5061981;28;19917;-82
2023/05/31 03:32:47;;;;;;;;;;;8.10;99.90;;;-148.53;100.00;63986.66;5053907;28;19959;-82
2023/05/31 03:35:12;;;;;;;;;;;8.10;99.90;;;-148.53;100.00;63986.66;5088960;28;19959;-82
2023/05/31 03:37:38;;;;;;;;;;;8.00;99.90;;;-148.53;100.00;63986.66;5066235;28;19958;-82
2023/05/31 03:40:10;;;;;;;;;;;8.00;99.90;;;-148.53;100.00;63986.66;5067243;28;19917;-83
2023/05/31 03:42:37;;;;;;;;;;;7.80;99.90;;;-148.53;100.00;63986.66;5059390;28;19920;-83
2023/05/31 03:45:03;;;;;;;;;;;7.80;99.90;;;-148.53;100.00;63986.66;5067274;28;19944;-83
2023/05/31 03:47:29;;;;;;;;;;;8.00;99.90;;;-148.53;100.00;63986.66;5054377;28;19963;-84
2023/05/31 03:49:55;;;;;;;;;;;8.10;99.90;;;-148.53;100.00;63986.66;5053207;28;19928;-83
2023/05/31 03:52:21;;;;;;;;;;;8.10;99.90;;;-148.53;100.00;63986.66;5057837;28;19916;-83
2023/05/31 03:54:47;;;;;;;;;;;8.20;99.90;;;-148.53;100.00;63986.66;5065233;28;19916;-83
2023/05/31 03:57:15;;;;;;;;;;;8.30;99.90;;;-148.53;100.00;63986.66;5068898;28;19917;-82
2023/05/31 03:59:40;;;;;;;;;;;8.30;99.90;;;-148.53;100.00;63986.66;5069148;28;19960;-82
2023/05/31 04:02:06;;;;;;;;;;;8.40;99.90;;;-148.53;100.00;63986.66;5053954;28;20402;-83
2023/05/31 04:04:31;;;;;;;;;;;8.40;99.90;;;-148.53;100.00;63986.66;5059543;28;19976;-83
2023/05/31 04:06:58;;;;;;;;;;;8.40;99.90;;;-148.53;100.00;63986.66;5053736;28;19983;-82
2023/05/31 04:09:23;;;;;;;;;;;8.40;99.90;;;-148.53;100.00;63986.66;5053913;28;20295;-83
2023/05/31 04:11:49;;;;;;;;;;;8.50;99.90;;;-148.53;100.00;63986.66;5053762;28;19916;-82
2023/05/31 04:14:15;;;;;;;;;;;8.60;99.90;;;-148.53;100.00;63986.66;5060184;28;19931;-83
2023/05/31 04:16:41;;;;;;;;;;;8.60;99.90;;;-148.53;100.00;63986.66;5085046;28;19973;-83
2023/05/31 04:19:07;;;;;;;;;;;8.70;99.90;;;-148.53;100.00;63986.66;5058775;28;19970;-83
2023/05/31 04:21:33;;;;;;;;;;;8.90;99.90;;;-148.53;100.00;63986.66;5052531;28;19916;-83
2023/05/31 04:23:59;;;;;;;;;;;9.00;99.90;;;-148.53;100.00;63986.66;5059354;28;20380;-84
2023/05/31 04:26:25;;;;;;;;;;;9.10;99.90;;;-148.53;100.00;63986.66;5051965;28;19927;-85
2023/05/31 04:28:53;;;;;;;;;;;9.20;99.90;;;-148.53;100.00;63986.66;5085578;28;19916;-83
2023/05/31 04:31:29;;;;;;;;;;;9.30;99.90;;;-148.53;100.00;63986.66;5067826;28;19938;-84
2023/05/31 04:33:57;;;;;;;;;;;9.40;99.90;;;-148.53;100.00;63986.66;5059467;28;19916;-85
2023/05/31 04:36:24;;;;;;;;;;;9.50;99.90;;;-148.53;100.00;63986.66;5055858;28;19955;-85
2023/05/31 04:38:50;;;;;;;;;;;9.60;99.90;;;-148.53;100.00;63986.66;5090453;28;19917;-83
2023/05/31 04:41:25;;;;;;;;;;;9.70;99.90;;;-148.53;100.00;63986.66;5059058;28;19916;-83
2023/05/31 04:43:55;;;;;;;;;;;9.80;99.90;;;-148.53;100.00;63986.66;5068725;28;19998;-83
2023/05/31 04:46:22;;;;;;;;;;;9.80;99.90;;;-148.53;100.00;63986.66;5063128;28;19916;-84
2023/05/31 04:48:49;;;;;;;;;;;9.90;99.90;;;-148.53;100.00;63986.66;5067610;28;19917;-83
2023/05/31 04:51:17;;;;;;;;;;;10.00;99.90;;;-148.53;100.00;63986.66;5065637;28;20006;-82
2023/05/31 04:53:45;;;;;;;;;;;10.10;99.90;;;-148.53;100.00;63986.66;5049532;28;20380;-79
2023/05/31 04:56:12;;;;;;;;;;;10.20;99.90;;;-148.53;100.00;63986.66;5063312;28;19912;-80
2023/05/31 04:58:39;;;;;;;;;;;10.30;99.90;;;-148.53;100.00;63986.66;5065889;28;19920;-81
2023/05/31 05:01:05;;;;;;;;;;;10.40;99.90;;;-148.53;100.00;63986.66;5059927;28;19928;-79
2023/05/31 05:03:41;;;;;;;;;;;10.40;99.90;;;-148.53;100.00;63986.66;5063208;28;19920;-79
2023/05/31 05:06:17;;;;;;;;;;;10.60;99.90;;;-148.53;100.00;63986.66;5057352;28;20007;-79
2023/05/31 05:08:43;;;;;;;;;;;10.70;99.90;;;-148.53;100.00;63986.66;5090771;28;19924;-79
2023/05/31 05:11:09;;;;;;;;;;;10.70;99.90;;;-148.53;100.00;63986.66;5054339;28;19917;-77
2023/05/31 05:13:35;;;;;;;;;;;10.80;99.90;;;-148.53;100.00;63986.66;5052032;28;19927;-78
2023/05/31 05:16:02;;;;;;;;;;;11.00;99.90;;;-148.53;100.00;63986.66;5054339;28;19916;-81
2023/05/31 05:18:29;;;;;;;;;;;11.00;99.90;;;-148.53;100.00;63986.66;5067469;28;19924;-79
2023/05/31 05:20:54;;;;;;;;;;;11.10;99.90;;;-148.53;100.00;63986.66;5056937;28;19916;-82
2023/05/31 05:23:25;;;;;;;;;;;11.30;99.90;;;-148.53;100.00;63986.66;5060860;28;19928;-79
2023/05/31 05:25:51;;;;;;;;;;;11.40;99.90;;;-148.53;100.00;63986.66;5053286;28;20286;-79
2023/05/31 05:28:17;;;;;;;;;;;11.60;99.90;;;-148.53;100.00;63986.66;5051636;28;19924;-77
2023/05/31 05:30:44;;;;;;;;;;;11.70;99.90;;;-148.53;100.00;63986.66;5051233;28;19935;-80
2023/05/31 05:33:11;;;;;;;;;;;11.90;99.90;;;-148.53;100.00;63986.66;5051359;28;20343;-78
2023/05/31 05:35:37;;;;;;;;;;;12.00;99.90;;;-148.53;100.00;63986.66;5061495;28;20323;-79
2023/05/31 05:38:02;;;;;;;;;;;12.20;99.90;;;-148.53;100.00;63986.66;5055034;28;20018;-80
2023/05/31 05:40:28;;;;;;;;;;;12.30;99.90;;;-148.53;100.00;63986.66;5066562;28;20376;-81
2023/05/31 05:42:54;;;;;;;;;;;12.50;99.90;;;-148.53;100.00;63986.66;5053316;28;19917;-81
2023/05/31 05:45:20;;;;;;;;;;;12.60;99.90;;;-148.53;100.00;63986.66;5054272;28;20007;-83
2023/05/31 05:47:48;;;;;;;;;;;12.80;99.90;;;-148.53;100.00;63986.66;5092460;28;19948;-81
2023/05/31 05:50:15;;;;;;;;;;;12.90;99.90;;;-148.53;100.00;63986.66;5061676;28;20283;-80
2023/05/31 05:52:41;;;;;;;;;;;13.00;99.90;;;-148.53;100.00;63986.66;5066076;28;19920;-83
2023/05/31 05:55:07;;;;;;;;;;;13.00;99.90;;;-148.53;100.00;63986.66;5060955;28;20360;-81
2023/05/31 05:57:33;;;;;;;;;;;13.10;99.90;;;-148.53;100.00;63986.66;5061154;28;19917;-82
2023/05/31 06:00:15;;;;;;;;;;;13.20;99.90;;;-148.53;100.00;63986.66;5054646;28;19943;-81
2023/05/31 06:02:45;;;;;;;;;;;13.40;99.90;;;-148.53;100.00;63986.66;5059503;28;19925;-80
2023/05/31 06:05:12;;;;;;;;;;;13.50;99.90;;;-148.53;100.00;63986.66;5054933;28;19924;-79
2023/05/31 06:07:38;;;;;;;;;;;13.50;99.90;;;-148.53;100.00;63986.66;5092841;28;20426;-79
2023/05/31 06:10:04;;;;;;;;;;;13.50;99.90;;;-148.53;100.00;63986.66;5060394;28;19968;-79
2023/05/31 06:12:30;;;;;;;;;;;13.60;99.90;;;-148.53;100.00;63986.66;5092742;28;19920;-79
2023/05/31 06:14:57;;;;;;;;;;;13.70;99.90;;;-148.53;100.00;63986.66;5066760;28;19930;-78
2023/05/31 06:17:23;;;;;;;;;;;13.80;99.90;;;-148.53;100.00;63986.66;5064535;28;20380;-77
2023/05/31 06:19:48;;;;;;;;;;;13.90;99.90;;;-148.53;100.00;63986.66;5062580;28;19944;-77
2023/05/31 06:22:14;;;;;;;;;;;14.00;99.90;;;-148.53;100.00;63986.66;5063861;28;19920;-79
2023/05/31 06:24:42;;;;;;;;;;;14.30;99.90;;;-148.53;100.00;63986.66;5060434;28;19916;-78
2023/05/31 06:27:08;;;;;;;;;;;14.40;99.90;;;-148.53;100.00;63986.66;5061904;28;20003;-78
2023/05/31 06:29:37;;;;;;;;;;;14.50;99.90;;;-148.53;100.00;63986.66;5061353;28;19943;-78
2023/05/31 06:32:14;;;;;;;;;;;14.70;99.90;;;-148.53;100.00;63986.66;5050876;28;20021;-78
2023/05/31 06:34:43;;;;;;;;;;;14.90;99.90;;;-148.53;100.00;63986.66;5050625;28;19924;-78
2023/05/31 06:37:09;;;;;;;;;;;15.00;99.90;;;-148.53;100.00;63986.66;5046962;28;19917;-80
2023/05/31 06:39:34;;;;;;;;;;;15.20;99.90;;;-148.53;100.00;63986.66;5054511;28;20372;-77
2023/05/31 06:42:01;;;;;;;;;;;15.30;99.90;;;-148.53;100.00;63986.66;5062390;28;19939;-77
2023/05/31 06:44:40;;;;;;;;;;;15.40;99.90;;;-148.53;100.00;63986.66;5065816;28;19924;-79
2023/05/31 06:47:11;;;;;;;;;;;15.50;99.90;;;-148.53;100.00;63986.66;5063273;28;19917;-77
2023/05/31 06:49:57;;;;;;;;;;;15.60;99.90;;;-148.53;100.00;63986.66;5063906;28;19920;-80
2023/05/31 06:52:51;;;;;;;;;;;15.80;99.90;;;-148.53;100.00;63986.66;5063764;28;19920;-78
2023/05/31 06:55:27;;;;;;;;;;;15.90;99.90;;;-148.53;100.00;63986.66;5065133;28;19956;-79
2023/05/31 06:57:53;;;;;;;;;;;16.10;99.90;;;-148.53;100.00;63986.66;5068976;28;19955;-79
2023/05/31 07:00:19;;;;;;;;;;;16.20;99.90;;;-148.53;100.00;63986.66;5068378;28;20002;-78
2023/05/31 07:02:45;;;;;;;;;;;16.40;99.90;;;-148.53;100.00;63986.66;5058634;28;19923;-79
2023/05/31 07:05:11;;;;;;;;;;;16.50;99.90;;;-148.53;100.00;63986.66;5085068;28;19921;-77
2023/05/31 07:07:37;;;;;;;;;;;16.60;99.90;;;-148.53;100.00;63986.66;5063389;28;20311;-79
2023/05/31 07:10:03;;;;;;;;;;;16.70;99.90;;;-148.53;100.00;63986.66;5052756;28;19963;-78
2023/05/31 07:12:28;;;;;;;;;;;16.60;99.90;;;-148.53;100.00;63986.66;5064273;28;19926;-80
2023/05/31 07:14:54;;;;;;;;;;;16.70;99.90;;;-148.53;100.00;63986.66;5092203;28;19966;-78
2023/05/31 07:17:21;;;;;;;;;;;16.80;99.90;;;-148.53;100.00;63986.66;5066339;28;19920;-79
2023/05/31 07:19:48;;;;;;;;;;;16.90;99.90;;;-148.53;100.00;63986.66;5091789;28;19921;-79
2023/05/31 07:22:15;;;;;;;;;;;17.00;99.90;;;-148.53;100.00;63986.66;5069155;28;19920;-78
2023/05/31 07:24:41;;;;;;;;;;;17.00;99.90;;;-148.53;100.00;63986.66;5062452;28;20341;-78
2023/05/31 07:27:07;;;;;;;;;;;17.10;99.90;;;-148.53;100.00;63986.66;5064018;28;19971;-79
2023/05/31 07:29:33;;;;;;;;;;;17.30;99.90;;;-148.53;100.00;63986.66;5065509;28;20026;-80
2023/05/31 07:31:59;;;;;;;;;;;17.40;99.90;;;-148.53;100.00;63986.66;5067073;28;19923;-79
2023/05/31 07:34:25;;;;;;;;;;;17.50;99.90;;;-148.53;100.00;63986.66;5070944;28;19928;-80
2023/05/31 07:36:50;;;;;;;;;;;17.60;99.90;;;-148.53;100.00;63986.66;5065929;28;19916;-80
2023/05/31 07:39:16;;;;;;;;;;;17.60;99.90;;;-148.53;100.00;63986.66;5066874;28;19967;-80
2023/05/31 07:41:42;;;;;;;;;;;17.60;99.90;;;-148.53;100.00;63986.66;5059663;28;19923;-81
2023/05/31 07:44:08;;;;;;;;;;;17.70;99.90;;;-148.53;100.00;63986.66;5054600;28;19917;-80
2023/05/31 07:46:35;;;;;;;;;;;17.80;99.90;;;-148.53;100.00;63986.66;5054165;28;19940;-78
2023/05/31 07:49:02;;;;;;;;;;;18.00;99.90;;;-148.53;100.00;63986.66;5066968;28;19916;-79
2023/05/31 07:51:29;;;;;;;;;;;18.20;99.90;;;-148.53;100.00;63986.66;5065966;28;19919;-78
2023/05/31 07:53:55;;;;;;;;;;;18.30;99.90;;;-148.53;100.00;63986.66;5051241;28;19956;-78
2023/05/31 07:56:20;;;;;;;;;;;18.40;99.90;;;-148.53;100.00;63986.66;5066001;28;20350;-78
2023/05/31 07:58:46;;;;;;;;;;;18.60;99.90;;;-148.53;100.00;63986.66;5068705;28;19957;-79
2023/05/31 08:01:12;;;;;;;;;;;18.80;99.90;;;-148.53;100.00;63986.66;5068067;28;20069;-78
2023/05/31 08:03:38;;;;;;;;;;;19.00;99.90;;;-148.53;100.00;63986.66;5066156;28;20031;-78
2023/05/31 08:06:04;;;;;;;;;;;19.10;99.90;;;-148.53;100.00;63986.66;5063534;28;19956;-79
2023/05/31 08:08:32;;;;;;;;;;;19.20;99.90;;;-148.53;100.00;63986.66;5056414;28;20446;-79
2023/05/31 08:10:58;;;;;;;;;;;19.10;99.90;;;-148.53;100.00;63986.66;5057265;28;19924;-79
2023/05/31 08:13:24;;;;;;;;;;;19.10;99.90;;;-148.53;100.00;63986.66;5057240;28;19923;-80
2023/05/31 08:15:51;;;;;;;;;;;19.20;99.90;;;-148.53;100.00;63986.66;5066119;28;20359;-80
2023/05/31 08:18:18;;;;;;;;;;;19.40;99.90;;;-148.53;100.00;63986.66;5065882;28;19921;-80
2023/05/31 08:20:43;;;;;;;;;;;19.50;99.90;;;-148.53;100.00;63986.66;5064196;28;20371;-80
2023/05/31 08:23:16;;;;;;;;;;;19.60;99.20;;;-148.53;100.00;63986.66;5060927;28;19931;-80
2023/05/31 08:25:42;;;;;;;;;;;19.50;98.30;;;-148.53;100.00;63986.66;5089451;28;20041;-80
2023/05/31 08:28:07;;;;;;;;;;;19.60;98.40;;;-148.53;100.00;63986.66;5054466;28;20110;-78
2023/05/31 08:30:33;;;;;;;;;;;19.80;97.20;;;-148.53;100.00;63986.66;5053732;28;19967;-79
2023/05/31 08:32:59;;;;;;;;;;;19.90;98.30;;;-148.53;100.00;63986.66;5052894;28;19924;-79
2023/05/31 08:35:25;;;;;;;;;;;19.90;97.10;;;-148.53;100.00;63986.66;5069034;28;19999;-81
2023/05/31 08:37:51;;;;;;;;;;;20.20;98.50;;;-148.53;100.00;63986.66;5059170;28;20021;-84
2023/05/31 08:40:17;;;;;;;;;;;20.40;95.10;;;-148.53;100.00;63986.66;5053568;28;19924;-84
2023/05/31 08:43:15;;;;;;;;;;;20.50;93.30;;;-148.53;100.00;63986.66;5058688;28;19916;-79
2023/05/31 08:45:42;;;;;;;;;;;20.20;92.00;;;-148.53;100.00;63986.66;5058414;28;19920;-77
2023/05/31 08:48:29;;;;;;;;;;;20.00;91.40;;;-148.53;100.00;63986.66;5053104;28;20364;-76
2023/05/31 08:50:56;;;;;;;;;;;20.00;91.60;;;-148.53;100.00;63986.66;5053409;28;19924;-77
2023/05/31 08:53:25;;;;;;;;;;;20.10;91.60;;;-148.53;100.00;63986.66;5051692;28;20010;-78
2023/05/31 08:55:53;;;;;;;;;;;20.40;91.30;;;-148.53;100.00;63986.66;5053284;28;20395;-78
2023/05/31 08:58:20;;;;;;;;;;;20.60;90.60;;;-148.53;100.00;63986.66;5052807;28;20376;-79
2023/05/31 09:00:46;;;;;;;;;;;21.00;89.50;;;-148.53;100.00;63986.66;5052261;28;19924;-78
2023/05/31 09:03:12;;;;;;;;;;;21.30;90.20;;;-148.53;100.00;63986.66;5056474;28;19916;-81
2023/05/31 09:05:38;;;;;;;;;;;21.50;86.90;;;-148.53;100.00;63986.66;5070183;28;19916;-81
2023/05/31 09:08:03;;;;;;;;;;;21.60;84.40;;;-148.53;100.00;63986.66;5061695;28;20016;-82
2023/05/31 09:10:30;;;;;;;;;;;21.60;83.20;;;-148.53;100.00;63986.66;5052102;28;19924;-81
2023/05/31 09:12:56;;;;;;;;;;;21.40;81.90;;;-148.53;100.00;63986.66;5035016;28;19928;-82
2023/05/31 09:15:24;;;;;;;;;;;21.20;83.20;;;-148.53;100.00;63986.66;5058447;28;19920;-82
2023/05/31 09:17:49;;;;;;;;;;;21.40;83.80;;;-148.53;100.00;63986.66;5057497;28;19917;-82
2023/05/31 09:20:16;;;;;;;;;;;21.90;83.50;;;-148.53;100.00;63986.66;5061601;28;19921;-81
2023/05/31 09:22:42;;;;;;;;;;;22.40;81.70;;;-148.53;100.00;63986.66;5056610;28;19917;-82
2023/05/31 09:25:08;;;;;;;;;;;22.80;82.70;;;-148.53;100.00;63986.66;5085001;28;19952;-81
2023/05/31 09:27:36;;;;;;;;;;;23.00;76.50;;;-148.53;100.00;63986.66;5051293;28;19928;-82
2023/05/31 09:30:13;;;;;;;;;;;23.10;77.10;;;-148.53;100.00;63986.66;5052247;28;19923;-81
2023/05/31 09:32:39;;;;;;;;;;;23.20;77.10;;;-148.53;100.00;63986.66;5051362;28;19920;-81
2023/05/31 09:35:16;;;;;;;;;;;23.10;74.20;;;-148.53;100.00;63986.66;5055564;28;19935;-83
2023/05/31 09:37:44;;;;;;;;;;;23.00;74.40;;;-148.53;100.00;63986.66;5059918;28;19959;-83
2023/05/31 09:40:14;;;;;;;;;;;;;;;-148.53;100.00;63986.66;5052884;28;20003;-82
2023/05/31 09:42:47;;;;;;;;;;;;;;;-148.53;100.00;63986.66;5063669;28;20283;-84
2023/05/31 09:45:13;;;;;;;;;;;23.20;75.70;;;-148.53;100.00;63986.66;5065230;28;19959;-82
2023/05/31 09:47:39;;;;;;;;;;;;;;;-148.53;100.00;63986.66;5065558;28;20050;-81
2023/05/31 09:50:08;;;;;;;;;;;;;;;-148.53;100.00;63986.66;5066895;28;20294;-83
2023/05/31 09:52:37;;;;;;;;;;;;;;;-148.53;100.00;63986.66;5065918;28;19923;-81
2023/05/31 09:55:08;;;;;;;;;;;;;;;-148.53;100.00;63986.66;5059297;28;19916;-81
2023/05/31 09:57:40;;;;;;;;;;;;;;;-148.53;100.00;63986.66;5086692;28;20492;-80
2023/05/31 10:00:12;;;;;;;;;;;;;;;-148.53;100.00;63986.66;5062454;28;19920;-80
2023/05/31 10:02:40;;;;;;;;;;;;;;;-148.53;100.00;63986.66;5052455;28;19923;-80
2023/05/31 10:05:07;;;;;;;;;;;;;;;-148.53;100.00;63986.66;5055307;28;19963;-81
2023/05/31 10:07:33;;;;;;;;;;;;;;;-148.53;100.00;63986.66;5034385;28;19962;-81
2023/05/31 10:09:59;;;;;;;;;;;;;;;-148.53;100.00;63986.66;5055147;28;20403;-78
2023/05/31 10:12:27;;;;;;;;;;;23.40;74.00;;;-148.53;100.00;63986.66;5053997;28;20090;-78
2023/05/31 10:14:59;;;;;;;;;;;;;;;-148.53;100.00;63986.66;5060553;28;20282;-78
2023/05/31 10:17:28;;;;;;;;;;;;;;;-148.53;100.00;63986.66;5072854;28;19928;-78
2023/05/31 10:19:58;;;;;;;;;;;;;;;-148.53;100.00;63986.66;5071070;28;19916;-78
2023/05/31 10:22:26;;;;;;;;;;;;;;;-148.53;100.00;63986.66;5073965;28;19921;-77
2023/05/31 10:24:57;;;;;;;;;;;;;;;-148.53;100.00;63986.66;5067213;28;19916;-78
2023/05/31 10:27:28;;;;;;;;;;;;;;;-148.53;100.00;63986.66;5067518;28;20573;-78
2023/05/31 10:29:55;;;;;;;;;;;;;;;-148.53;100.00;63986.66;5061984;28;20339;-77
2023/05/31 10:32:29;;;;;;;;;;;;;;;-148.53;100.00;63986.66;5061576;28;19920;-77
2023/05/31 10:34:55;;;;;;;;;;;;;;;-148.53;100.00;63986.66;5062028;28;19920;-76
2023/05/31 10:37:21;;;;;;;;;;;;;;;-148.53;100.00;63986.66;5061492;28;20369;-78
2023/05/31 10:39:47;;;;;;;;;;;;;;;-148.53;100.00;63986.66;5060921;28;20261;-77
2023/05/31 10:42:25;;;;;;;;;;;;;;;-148.53;100.00;63986.66;5055626;28;19923;-75
2023/05/31 10:45:03;;;;;;;;;;;;;;;-148.53;100.00;63986.66;5054629;28;19916;-76
2023/05/31 10:47:45;;;;;;;;;;;;;;;-148.53;100.00;63986.66;5054206;28;19912;-76
2023/05/31 10:50:21;;;;;;;;;;;;;;;-148.53;100.00;63986.66;5066916;28;19917;-76
2023/05/31 10:52:50;;;;;;;;;;;;;;;-148.53;100.00;63986.66;5059842;28;19931;-77
2023/05/31 10:55:23;;;;;;;;;;;;;;;-148.53;100.00;63986.66;5072405;28;19979;-77
2023/05/31 10:57:49;;;;;;;;;;;;;;;-148.53;100.00;63986.66;5069949;28;19916;-75
2023/05/31 11:00:19;;;;;;;;;;;;;;;-148.53;100.00;63986.66;5072343;28;19916;-76
2023/05/31 11:02:47;;;;;;;;;;;;;;;-148.53;100.00;63986.66;5068187;28;19920;-76
2023/05/31 11:05:24;;;;;;;;;;;;;;;-148.53;100.00;63986.66;5068582;28;19963;-78
2023/05/31 11:07:51;;;;;;;;;;;;;;;-148.53;100.00;63986.66;5050300;28;20015;-76
2023/05/31 11:10:28;;;;;;;;;;;;;;;-148.53;100.00;63986.66;5051992;28;19917;-77
2023/05/31 11:13:01;;;;;;;;;;;;;;;-148.53;100.00;63986.66;5093508;28;19923;-76